sensor_id;sensor_type;location;lat;lon;timestamp;pressure;altitude;pressure_sealevel;temperature;humidity
80927;BME280;70385;44.538;18.532;2023-06-14T00:01:09;99048.50;;;12.81;94.84
80927;BME280;70385;44.538;18.532;2023-06-14T00:03:35;99054.50;;;12.83;94.21
80927;BME280;70385;44.538;18.532;2023-06-14T00:06:01;99047.19;;;12.74;94.46
80927;BME280;70385;44.538;18.532;2023-06-14T00:08:30;99051.50;;;12.75;94.72
80927;BME280;70385;44.538;18.532;2023-06-14T00:10:56;99052.16;;;12.79;94.30
80927;BME280;70385;44.538;18.532;2023-06-14T00:13:28;99060.97;;;12.77;94.58
80927;BME280;70385;44.538;18.532;2023-06-14T00:15:54;99062.31;;;12.69;94.33
80927;BME280;70385;44.538;18.532;2023-06-14T00:18:21;99055.00;;;12.60;94.85
80927;BME280;70385;44.538;18.532;2023-06-14T00:20:52;99058.81;;;12.54;95.02
80927;BME280;70385;44.538;18.532;2023-06-14T00:23:18;99058.03;;;12.52;95.26
80927;BME280;70385;44.538;18.532;2023-06-14T00:25:44;99057.28;;;12.50;95.55
80927;BME280;70385;44.538;18.532;2023-06-14T00:28:10;99053.06;;;12.48;95.85
80927;BME280;70385;44.538;18.532;2023-06-14T00:30:36;99050.81;;;12.41;96.02
80927;BME280;70385;44.538;18.532;2023-06-14T00:33:02;99059.69;;;12.39;95.89
80927;BME280;70385;44.538;18.532;2023-06-14T00:35:31;99056.72;;;12.45;95.54
80927;BME280;70385;44.538;18.532;2023-06-14T00:37:58;99051.56;;;12.43;95.85
80927;BME280;70385;44.538;18.532;2023-06-14T00:40:25;99052.66;;;12.39;95.58
80927;BME280;70385;44.538;18.532;2023-06-14T00:42:53;99052.94;;;12.35;95.91
80927;BME280;70385;44.538;18.532;2023-06-14T00:45:20;99049.72;;;12.30;95.94
80927;BME280;70385;44.538;18.532;2023-06-14T00:47:46;99049.72;;;12.30;95.98
80927;BME280;70385;44.538;18.532;2023-06-14T00:50:24;99049.53;;;12.33;95.96
80927;BME280;70385;44.538;18.532;2023-06-14T00:52:50;99036.34;;;12.34;95.45
80927;BME280;70385;44.538;18.532;2023-06-14T00:55:17;99035.56;;;12.32;95.51
80927;BME280;70385;44.538;18.532;2023-06-14T00:57:43;99046.16;;;12.31;95.71
80927;BME280;70385;44.538;18.532;2023-06-14T01:00:10;99044.66;;;12.27;95.87
80927;BME280;70385;44.538;18.532;2023-06-14T01:02:39;99033.66;;;12.20;96.22
80927;BME280;70385;44.538;18.532;2023-06-14T01:05:08;99036.28;;;12.20;96.22
80927;BME280;70385;44.538;18.532;2023-06-14T01:08:07;99032.91;;;12.18;96.00
80927;BME280;70385;44.538;18.532;2023-06-14T01:13:43;99025.88;;;12.19;96.53
80927;BME280;70385;44.538;18.532;2023-06-14T01:16:12;99024.78;;;12.23;95.96
80927;BME280;70385;44.538;18.532;2023-06-14T01:18:39;99028.25;;;12.23;96.02
80927;BME280;70385;44.538;18.532;2023-06-14T01:21:26;99028.41;;;12.20;95.64
80927;BME280;70385;44.538;18.532;2023-06-14T01:23:53;99028.41;;;12.20;95.96
80927;BME280;70385;44.538;18.532;2023-06-14T01:26:22;99021.41;;;12.21;95.69
80927;BME280;70385;44.538;18.532;2023-06-14T01:28:51;99030.84;;;12.23;95.52
80927;BME280;70385;44.538;18.532;2023-06-14T01:31:23;99030.47;;;12.15;95.21
80927;BME280;70385;44.538;18.532;2023-06-14T01:33:50;99037.63;;;12.11;95.34
80927;BME280;70385;44.538;18.532;2023-06-14T01:36:19;99041.09;;;12.12;95.28
80927;BME280;70385;44.538;18.532;2023-06-14T01:38:47;99033.97;;;12.14;95.39
80927;BME280;70385;44.538;18.532;2023-06-14T01:41:18;99028.69;;;12.15;95.44
80927;BME280;70385;44.538;18.532;2023-06-14T01:43:47;99028.75;;;12.14;95.86
80927;BME280;70385;44.538;18.532;2023-06-14T01:46:16;99031.88;;;12.21;95.67
80927;BME280;70385;44.538;18.532;2023-06-14T01:48:50;99030.31;;;12.32;95.56
80927;BME280;70385;44.538;18.532;2023-06-14T01:51:16;99023.72;;;12.41;95.64
80927;BME280;70385;44.538;18.532;2023-06-14T01:53:43;99021.19;;;12.39;95.82
80927;BME280;70385;44.538;18.532;2023-06-14T01:56:11;99021.00;;;12.42;95.66
80927;BME280;70385;44.538;18.532;2023-06-14T01:58:37;99018.38;;;12.42;95.82
80927;BME280;70385;44.538;18.532;2023-06-14T02:01:05;99021.41;;;12.51;95.62
80927;BME280;70385;44.538;18.532;2023-06-14T02:03:35;99019.03;;;12.46;95.33
80927;BME280;70385;44.538;18.532;2023-06-14T02:06:08;99020.44;;;12.37;94.82
80927;BME280;70385;44.538;18.532;2023-06-14T02:08:34;99014.25;;;12.38;95.33
80927;BME280;70385;44.538;18.532;2023-06-14T02:11:00;99018.19;;;12.45;95.03
80927;BME280;70385;44.538;18.532;2023-06-14T02:13:26;99013.97;;;12.43;94.76
80927;BME280;70385;44.538;18.532;2023-06-14T02:15:52;99019.31;;;12.41;95.05
80927;BME280;70385;44.538;18.532;2023-06-14T02:18:23;99021.09;;;12.41;95.11
80927;BME280;70385;44.538;18.532;2023-06-14T02:20:49;99023.72;;;12.41;94.82
80927;BME280;70385;44.538;18.532;2023-06-14T02:23:16;99031.69;;;12.39;94.66
80927;BME280;70385;44.538;18.532;2023-06-14T02:25:46;99036.09;;;12.23;94.53
80927;BME280;70385;44.538;18.532;2023-06-14T02:28:12;99038.06;;;12.20;95.27
80927;BME280;70385;44.538;18.532;2023-06-14T02:30:38;99032.16;;;12.16;95.36
80927;BME280;70385;44.538;18.532;2023-06-14T02:33:04;99036.47;;;12.17;95.39
80927;BME280;70385;44.538;18.532;2023-06-14T02:35:34;99038.06;;;12.20;95.75
80927;BME280;70385;44.538;18.532;2023-06-14T02:38:01;99038.31;;;12.15;95.85
80927;BME280;70385;44.538;18.532;2023-06-14T02:40:27;99039.94;;;12.18;95.77
80927;BME280;70385;44.538;18.532;2023-06-14T02:42:56;99032.91;;;12.18;95.72
80927;BME280;70385;44.538;18.532;2023-06-14T02:45:23;99033.00;;;12.17;95.62
80927;BME280;70385;44.538;18.532;2023-06-14T02:47:49;99033.66;;;12.04;96.13
80927;BME280;70385;44.538;18.532;2023-06-14T02:50:15;99031.41;;;11.98;96.05
80927;BME280;70385;44.538;18.532;2023-06-14T02:52:42;99022.06;;;11.93;96.26
80927;BME280;70385;44.538;18.532;2023-06-14T02:55:11;99017.94;;;11.89;96.54
80927;BME280;70385;44.538;18.532;2023-06-14T02:57:37;99019.03;;;11.84;96.52
80927;BME280;70385;44.538;18.532;2023-06-14T03:00:04;99023.19;;;11.89;96.15
80927;BME280;70385;44.538;18.532;2023-06-14T03:02:34;99021.00;;;11.81;96.25
80927;BME280;70385;44.538;18.532;2023-06-14T03:05:08;99020.16;;;11.80;96.24
80927;BME280;70385;44.538;18.532;2023-06-14T03:07:35;99021.75;;;11.83;96.38
80927;BME280;70385;44.538;18.532;2023-06-14T03:10:09;99023.53;;;11.82;96.03
80927;BME280;70385;44.538;18.532;2023-06-14T03:12:40;99028.44;;;11.89;96.03
80927;BME280;70385;44.538;18.532;2023-06-14T03:15:11;99026.56;;;11.91;95.85
80927;BME280;70385;44.538;18.532;2023-06-14T03:17:44;99030.47;;;11.83;96.27
80927;BME280;70385;44.538;18.532;2023-06-14T03:20:12;99035.13;;;11.78;96.11
80927;BME280;70385;44.538;18.532;2023-06-14T03:22:37;99041.41;;;11.74;96.13
80927;BME280;70385;44.538;18.532;2023-06-14T03:25:07;99037.19;;;11.72;96.10
80927;BME280;70385;44.538;18.532;2023-06-14T03:27:36;99036.34;;;11.71;96.27
80927;BME280;70385;44.538;18.532;2023-06-14T03:30:05;99042.09;;;11.78;96.71
80927;BME280;70385;44.538;18.532;2023-06-14T03:32:32;99044.50;;;11.82;96.44
80927;BME280;70385;44.538;18.532;2023-06-14T03:35:03;99040.78;;;11.87;96.58
80927;BME280;70385;44.538;18.532;2023-06-14T03:37:30;99045.84;;;11.90;96.57
80927;BME280;70385;44.538;18.532;2023-06-14T03:39:56;99042.91;;;11.96;96.35
80927;BME280;70385;44.538;18.532;2023-06-14T03:42:24;99043.50;;;12.01;96.00
80927;BME280;70385;44.538;18.532;2023-06-14T03:44:52;99052.13;;;12.03;95.91
80927;BME280;70385;44.538;18.532;2023-06-14T03:47:23;99044.81;;;12.08;96.03
80927;BME280;70385;44.538;18.532;2023-06-14T03:49:49;99050.50;;;12.16;95.85
80927;BME280;70385;44.538;18.532;2023-06-14T03:52:15;99052.09;;;12.19;95.60
80927;BME280;70385;44.538;18.532;2023-06-14T03:54:48;99050.38;;;12.33;95.37
80927;BME280;70385;44.538;18.532;2023-06-14T03:57:14;99060.38;;;12.42;94.54
80927;BME280;70385;44.538;18.532;2023-06-14T03:59:41;99064.41;;;12.48;94.48
80927;BME280;70385;44.538;18.532;2023-06-14T04:02:07;99062.31;;;12.69;94.02
80927;BME280;70385;44.538;18.532;2023-06-14T04:04:36;99063.78;;;12.89;92.20
80927;BME280;70385;44.538;18.532;2023-06-14T04:07:04;99069.44;;;12.67;92.70
80927;BME280;70385;44.538;18.532;2023-06-14T04:09:33;99065.00;;;12.83;92.53
80927;BME280;70385;44.538;18.532;2023-06-14T04:11:59;99056.75;;;12.75;92.93
80927;BME280;70385;44.538;18.532;2023-06-14T04:14:26;99061.16;;;12.89;92.37
80927;BME280;70385;44.538;18.532;2023-06-14T04:16:52;99062.22;;;13.00;92.35
80927;BME280;70385;44.538;18.532;2023-06-14T04:19:20;99061.00;;;13.06;92.33
80927;BME280;70385;44.538;18.532;2023-06-14T04:21:48;99068.09;;;13.20;91.80
80927;BME280;70385;44.538;18.532;2023-06-14T04:24:16;99074.31;;;13.33;91.23
80927;BME280;70385;44.538;18.532;2023-06-14T04:26:48;99062.03;;;13.33;90.83
80927;BME280;70385;44.538;18.532;2023-06-14T04:29:19;99064.94;;;13.43;89.85
80927;BME280;70385;44.538;18.532;2023-06-14T04:31:59;99074.50;;;13.73;89.16
80927;BME280;70385;44.538;18.532;2023-06-14T04:34:26;99082.09;;;13.91;87.87
80927;BME280;70385;44.538;18.532;2023-06-14T04:36:57;99081.06;;;13.65;88.64
80927;BME280;70385;44.538;18.532;2023-06-14T04:39:45;99082.31;;;14.15;86.55
80927;BME280;70385;44.538;18.532;2023-06-14T04:42:12;99087.38;;;14.18;85.93
80927;BME280;70385;44.538;18.532;2023-06-14T04:44:42;99084.34;;;14.24;85.49
80927;BME280;70385;44.538;18.532;2023-06-14T04:47:11;99080.03;;;14.23;86.19
80927;BME280;70385;44.538;18.532;2023-06-14T04:49:42;99079.34;;;14.34;85.42
80927;BME280;70385;44.538;18.532;2023-06-14T04:52:14;99088.84;;;14.37;85.04
80927;BME280;70385;44.538;18.532;2023-06-14T04:54:45;99085.25;;;14.52;84.74
80927;BME280;70385;44.538;18.532;2023-06-14T04:57:16;99089.78;;;14.36;86.42
80927;BME280;70385;44.538;18.532;2023-06-14T04:59:50;99093.16;;;14.38;86.20
80927;BME280;70385;44.538;18.532;2023-06-14T05:02:24;99084.56;;;14.21;87.15
80927;BME280;70385;44.538;18.532;2023-06-14T05:04:50;99088.63;;;14.40;86.39
80927;BME280;70385;44.538;18.532;2023-06-14T05:07:16;99084.34;;;14.24;87.76
80927;BME280;70385;44.538;18.532;2023-06-14T05:09:43;99084.09;;;14.29;86.94
80927;BME280;70385;44.538;18.532;2023-06-14T05:12:11;99093.59;;;14.58;86.27
80927;BME280;70385;44.538;18.532;2023-06-14T05:14:37;99093.47;;;14.60;87.30
80927;BME280;70385;44.538;18.532;2023-06-14T05:17:05;99095.78;;;14.92;85.40
80927;BME280;70385;44.538;18.532;2023-06-14T05:19:31;99095.06;;;14.90;84.93
80927;BME280;70385;44.538;18.532;2023-06-14T05:21:59;99088.34;;;15.11;85.28
80927;BME280;70385;44.538;18.532;2023-06-14T05:24:26;99095.72;;;15.06;84.76
80927;BME280;70385;44.538;18.532;2023-06-14T05:26:52;99092.06;;;15.46;83.88
80927;BME280;70385;44.538;18.532;2023-06-14T05:29:18;99108.50;;;15.50;84.63
80927;BME280;70385;44.538;18.532;2023-06-14T05:31:44;99093.75;;;15.60;83.81
80927;BME280;70385;44.538;18.532;2023-06-14T05:34:10;99093.75;;;15.86;83.68
80927;BME280;70385;44.538;18.532;2023-06-14T05:36:36;99091.63;;;15.78;83.71
80927;BME280;70385;44.538;18.532;2023-06-14T05:39:03;99077.22;;;16.07;80.85
80927;BME280;70385;44.538;18.532;2023-06-14T05:41:32;99084.44;;;15.93;81.83
80927;BME280;70385;44.538;18.532;2023-06-14T05:43:58;99087.03;;;16.05;82.60
80927;BME280;70385;44.538;18.532;2023-06-14T05:46:29;99089.16;;;16.37;81.01
80927;BME280;70385;44.538;18.532;2023-06-14T05:48:55;99091.16;;;16.57;79.51
80927;BME280;70385;44.538;18.532;2023-06-14T05:51:22;99090.63;;;16.41;80.06
80927;BME280;70385;44.538;18.532;2023-06-14T05:53:53;99091.91;;;16.35;81.17
80927;BME280;70385;44.538;18.532;2023-06-14T05:56:20;99089.78;;;16.41;81.73
80927;BME280;70385;44.538;18.532;2023-06-14T05:58:46;99087.78;;;16.68;78.85
80927;BME280;70385;44.538;18.532;2023-06-14T06:01:14;99091.56;;;16.64;78.72
80927;BME280;70385;44.538;18.532;2023-06-14T06:03:41;99088.63;;;16.68;78.86
80927;BME280;70385;44.538;18.532;2023-06-14T06:06:14;99090.75;;;16.63;78.30
80927;BME280;70385;44.538;18.532;2023-06-14T06:08:41;99095.81;;;16.66;78.70
80927;BME280;70385;44.538;18.532;2023-06-14T06:11:08;99093.16;;;16.90;77.53
80927;BME280;70385;44.538;18.532;2023-06-14T06:13:40;99104.72;;;17.01;78.99
80927;BME280;70385;44.538;18.532;2023-06-14T06:16:06;99101.09;;;17.37;77.14
80927;BME280;70385;44.538;18.532;2023-06-14T06:18:34;99103.00;;;17.35;77.15
80927;BME280;70385;44.538;18.532;2023-06-14T06:21:03;99107.09;;;17.50;76.98
80927;BME280;70385;44.538;18.532;2023-06-14T06:23:34;99098.94;;;17.53;76.90
80927;BME280;70385;44.538;18.532;2023-06-14T06:26:01;99111.31;;;17.52;75.91
80927;BME280;70385;44.538;18.532;2023-06-14T06:28:27;99113.78;;;17.78;74.68
80927;BME280;70385;44.538;18.532;2023-06-14T06:30:53;99108.16;;;17.94;74.76
80927;BME280;70385;44.538;18.532;2023-06-14T06:33:19;99114.38;;;18.04;74.11
80927;BME280;70385;44.538;18.532;2023-06-14T06:35:46;99110.41;;;17.87;73.80
80927;BME280;70385;44.538;18.532;2023-06-14T06:38:13;99119.78;;;17.91;73.48
80927;BME280;70385;44.538;18.532;2023-06-14T06:40:39;99126.16;;;17.88;73.58
80927;BME280;70385;44.538;18.532;2023-06-14T06:43:05;99127.13;;;17.87;74.11
80927;BME280;70385;44.538;18.532;2023-06-14T06:45:40;99126.88;;;17.90;73.06
80927;BME280;70385;44.538;18.532;2023-06-14T06:48:06;99130.69;;;17.64;73.86
80927;BME280;70385;44.538;18.532;2023-06-14T06:50:32;99128.13;;;17.98;72.94
80927;BME280;70385;44.538;18.532;2023-06-14T06:53:00;99136.50;;;17.69;74.89
80927;BME280;70385;44.538;18.532;2023-06-14T06:55:25;99137.50;;;17.79;74.28
80927;BME280;70385;44.538;18.532;2023-06-14T06:57:51;99128.34;;;17.95;74.02
80927;BME280;70385;44.538;18.532;2023-06-14T07:00:20;99133.88;;;17.92;74.22
80927;BME280;70385;44.538;18.532;2023-06-14T07:02:48;99132.78;;;18.16;73.14
80927;BME280;70385;44.538;18.532;2023-06-14T07:05:14;99138.09;;;18.16;72.28
80927;BME280;70385;44.538;18.532;2023-06-14T07:07:40;99130.38;;;18.02;73.87
80927;BME280;70385;44.538;18.532;2023-06-14T07:10:07;99126.03;;;18.35;71.98
80927;BME280;70385;44.538;18.532;2023-06-14T07:12:33;99133.28;;;17.88;73.86
80927;BME280;70385;44.538;18.532;2023-06-14T07:15:03;99132.19;;;17.90;74.12
80927;BME280;70385;44.538;18.532;2023-06-14T07:17:30;99143.00;;;18.10;72.94
80927;BME280;70385;44.538;18.532;2023-06-14T07:19:56;99137.34;;;18.37;72.44
80927;BME280;70385;44.538;18.532;2023-06-14T07:22:22;99147.13;;;18.03;73.20
80927;BME280;70385;44.538;18.532;2023-06-14T07:24:48;99145.28;;;17.92;74.60
80927;BME280;70385;44.538;18.532;2023-06-14T07:27:16;99142.78;;;17.90;74.25
80927;BME280;70385;44.538;18.532;2023-06-14T07:29:43;99139.53;;;17.87;73.47
80927;BME280;70385;44.538;18.532;2023-06-14T07:32:09;99132.19;;;17.68;74.80
80927;BME280;70385;44.538;18.532;2023-06-14T07:34:35;99136.81;;;17.53;74.71
80927;BME280;70385;44.538;18.532;2023-06-14T07:37:03;99137.97;;;17.96;72.61
80927;BME280;70385;44.538;18.532;2023-06-14T07:39:31;99136.19;;;17.96;73.64
80927;BME280;70385;44.538;18.532;2023-06-14T07:41:58;99141.69;;;18.15;72.57
80927;BME280;70385;44.538;18.532;2023-06-14T07:44:24;99139.72;;;18.51;71.05
80927;BME280;70385;44.538;18.532;2023-06-14T07:46:50;99138.13;;;18.60;70.38
80927;BME280;70385;44.538;18.532;2023-06-14T07:49:16;99135.50;;;18.71;70.51
80927;BME280;70385;44.538;18.532;2023-06-14T07:51:46;99139.59;;;18.53;69.13
80927;BME280;70385;44.538;18.532;2023-06-14T07:54:13;99144.13;;;17.96;71.66
80927;BME280;70385;44.538;18.532;2023-06-14T07:56:39;99147.72;;;18.17;71.86
80927;BME280;70385;44.538;18.532;2023-06-14T07:59:05;99140.88;;;18.15;71.02
80927;BME280;70385;44.538;18.532;2023-06-14T08:01:31;99143.84;;;18.33;71.09
80927;BME280;70385;44.538;18.532;2023-06-14T08:03:59;99139.47;;;18.43;70.28
80927;BME280;70385;44.538;18.532;2023-06-14T08:06:25;99150.41;;;18.49;69.98
80927;BME280;70385;44.538;18.532;2023-06-14T08:08:52;99147.72;;;18.83;70.18
80927;BME280;70385;44.538;18.532;2023-06-14T08:11:18;99153.28;;;18.80;70.09
80927;BME280;70385;44.538;18.532;2023-06-14T08:13:48;99152.28;;;18.92;68.51
80927;BME280;70385;44.538;18.532;2023-06-14T08:16:15;99153.34;;;18.35;71.14
80927;BME280;70385;44.538;18.532;2023-06-14T08:18:41;99153.53;;;18.77;69.79
80927;BME280;70385;44.538;18.532;2023-06-14T08:21:06;99152.72;;;18.97;70.16
80927;BME280;70385;44.538;18.532;2023-06-14T08:23:35;99153.66;;;18.75;70.77
80927;BME280;70385;44.538;18.532;2023-06-14T08:26:02;99143.47;;;18.92;69.02
80927;BME280;70385;44.538;18.532;2023-06-14T08:28:29;99152.22;;;19.03;68.46
80927;BME280;70385;44.538;18.532;2023-06-14T08:30:55;99157.66;;;18.59;70.46
80927;BME280;70385;44.538;18.532;2023-06-14T08:33:21;99156.78;;;18.80;70.12
80927;BME280;70385;44.538;18.532;2023-06-14T08:35:50;99150.16;;;19.07;68.08
80927;BME280;70385;44.538;18.532;2023-06-14T08:38:17;99154.00;;;19.35;66.53
80927;BME280;70385;44.538;18.532;2023-06-14T08:40:46;99156.84;;;19.22;68.34
80927;BME280;70385;44.538;18.532;2023-06-14T08:43:15;99157.19;;;19.29;68.04
80927;BME280;70385;44.538;18.532;2023-06-14T08:45:41;99163.09;;;19.21;72.02
80927;BME280;70385;44.538;18.532;2023-06-14T08:48:08;99153.72;;;18.96;69.68
80927;BME280;70385;44.538;18.532;2023-06-14T08:50:37;99155.13;;;19.00;69.41
80927;BME280;70385;44.538;18.532;2023-06-14T08:53:13;99151.81;;;19.08;68.73
80927;BME280;70385;44.538;18.532;2023-06-14T08:55:45;99157.31;;;19.48;66.87
80927;BME280;70385;44.538;18.532;2023-06-14T08:58:11;99163.94;;;19.54;66.53
80927;BME280;70385;44.538;18.532;2023-06-14T09:00:43;99164.81;;;19.64;65.61
80927;BME280;70385;44.538;18.532;2023-06-14T09:03:10;99167.84;;;19.18;68.78
80927;BME280;70385;44.538;18.532;2023-06-14T09:05:44;99165.94;;;19.61;66.64
80927;BME280;70385;44.538;18.532;2023-06-14T09:08:12;99169.28;;;19.84;65.06
80927;BME280;70385;44.538;18.532;2023-06-14T09:10:39;99163.22;;;20.03;65.66
80927;BME280;70385;44.538;18.532;2023-06-14T09:13:09;99162.63;;;20.30;64.69
80927;BME280;70385;44.538;18.532;2023-06-14T09:15:35;99159.28;;;20.28;64.47
80927;BME280;70385;44.538;18.532;2023-06-14T09:18:06;99156.84;;;20.55;64.67
80927;BME280;70385;44.538;18.532;2023-06-14T09:20:37;99153.34;;;20.55;63.37
80927;BME280;70385;44.538;18.532;2023-06-14T09:23:06;99151.97;;;20.20;65.65
80927;BME280;70385;44.538;18.532;2023-06-14T09:25:42;99146.34;;;20.54;65.45
80927;BME280;70385;44.538;18.532;2023-06-14T09:28:11;99141.50;;;20.69;63.58
80927;BME280;70385;44.538;18.532;2023-06-14T09:30:38;99137.72;;;21.00;63.06
80927;BME280;70385;44.538;18.532;2023-06-14T09:33:05;99132.50;;;20.60;62.93
80927;BME280;70385;44.538;18.532;2023-06-14T09:35:34;99138.25;;;20.15;65.57
80927;BME280;70385;44.538;18.532;2023-06-14T09:38:00;99135.50;;;20.96;64.39
80927;BME280;70385;44.538;18.532;2023-06-14T09:40:27;99132.22;;;20.63;63.12
80927;BME280;70385;44.538;18.532;2023-06-14T09:42:53;99130.97;;;20.48;64.75
80927;BME280;70385;44.538;18.532;2023-06-14T09:45:24;99136.31;;;20.77;62.94
80927;BME280;70385;44.538;18.532;2023-06-14T09:47:56;99122.47;;;20.92;62.07
80927;BME280;70385;44.538;18.532;2023-06-14T09:50:23;99126.81;;;20.65;62.35
80927;BME280;70385;44.538;18.532;2023-06-14T09:52:52;99134.66;;;20.36;64.56
80927;BME280;70385;44.538;18.532;2023-06-14T09:55:29;99133.09;;;20.23;65.85
80927;BME280;70385;44.538;18.532;2023-06-14T09:57:56;99126.97;;;20.33;65.25
80927;BME280;70385;44.538;18.532;2023-06-14T10:00:26;99127.47;;;20.57;63.13
80927;BME280;70385;44.538;18.532;2023-06-14T10:02:58;99133.09;;;20.64;63.76
80927;BME280;70385;44.538;18.532;2023-06-14T10:05:28;99125.00;;;20.94;62.22
80927;BME280;70385;44.538;18.532;2023-06-14T10:08:04;99129.19;;;21.16;64.13
80927;BME280;70385;44.538;18.532;2023-06-14T10:10:38;99127.66;;;21.04;63.34
80927;BME280;70385;44.538;18.532;2023-06-14T10:13:08;99132.69;;;20.68;63.16
80927;BME280;70385;44.538;18.532;2023-06-14T10:16:00;99126.38;;;20.79;62.24
80927;BME280;70385;44.538;18.532;2023-06-14T10:23:49;99116.31;;;21.21;62.66
80927;BME280;70385;44.538;18.532;2023-06-14T10:26:23;99117.00;;;21.23;63.62
80927;BME280;70385;44.538;18.532;2023-06-14T10:29:17;99110.44;;;20.88;65.13
80927;BME280;70385;44.538;18.532;2023-06-14T10:31:47;99104.53;;;21.43;62.12
80927;BME280;70385;44.538;18.532;2023-06-14T10:34:30;99109.59;;;20.98;63.47
80927;BME280;70385;44.538;18.532;2023-06-14T10:37:11;99104.28;;;21.27;66.37
80927;BME280;70385;44.538;18.532;2023-06-14T10:39:41;99098.78;;;21.47;62.58
80927;BME280;70385;44.538;18.532;2023-06-14T10:42:09;99101.69;;;21.54;62.72
80927;BME280;70385;44.538;18.532;2023-06-14T10:44:52;99100.34;;;21.21;63.42
80927;BME280;70385;44.538;18.532;2023-06-14T10:47:32;99093.16;;;21.50;63.19
80927;BME280;70385;44.538;18.532;2023-06-14T10:50:07;99101.00;;;21.62;63.33
80927;BME280;70385;44.538;18.532;2023-06-14T10:52:39;99101.69;;;21.64;63.42
80927;BME280;70385;44.538;18.532;2023-06-14T10:55:27;99102.38;;;22.03;61.56
80927;BME280;70385;44.538;18.532;2023-06-14T10:58:00;99099.94;;;21.82;61.86
80927;BME280;70385;44.538;18.532;2023-06-14T11:00:28;99099.72;;;21.93;64.32
80927;BME280;70385;44.538;18.532;2023-06-14T11:03:28;99102.50;;;22.01;62.02
80927;BME280;70385;44.538;18.532;2023-06-14T11:05:59;99103.38;;;21.55;62.86
80927;BME280;70385;44.538;18.532;2023-06-14T11:11:18;99096.16;;;21.09;64.13
80927;BME280;70385;44.538;18.532;2023-06-14T11:13:51;99099.66;;;21.09;63.72
80927;BME280;70385;44.538;18.532;2023-06-14T11:16:18;99100.59;;;21.37;62.03
80927;BME280;70385;44.538;18.532;2023-06-14T11:18:51;99098.25;;;21.81;62.76
80927;BME280;70385;44.538;18.532;2023-06-14T11:21:21;99091.47;;;22.24;62.36
80927;BME280;70385;44.538;18.532;2023-06-14T11:24:00;99092.47;;;22.23;62.39
80927;BME280;70385;44.538;18.532;2023-06-14T11:26:28;99081.78;;;21.95;57.69
80927;BME280;70385;44.538;18.532;2023-06-14T11:29:04;99074.34;;;22.26;55.09
80927;BME280;70385;44.538;18.532;2023-06-14T11:31:32;99084.84;;;22.00;54.66
80927;BME280;70385;44.538;18.532;2023-06-14T11:33:59;99079.16;;;21.48;57.50
80927;BME280;70385;44.538;18.532;2023-06-14T11:36:30;99075.28;;;21.80;57.17
80927;BME280;70385;44.538;18.532;2023-06-14T11:39:03;99066.16;;;22.55;55.65
80927;BME280;70385;44.538;18.532;2023-06-14T11:41:45;99065.06;;;23.71;52.22
80927;BME280;70385;44.538;18.532;2023-06-14T11:44:16;99055.94;;;24.24;48.58
80927;BME280;70385;44.538;18.532;2023-06-14T11:46:43;99056.00;;;24.48;49.43
80927;BME280;70385;44.538;18.532;2023-06-14T11:49:08;99051.03;;;24.78;47.90
80927;BME280;70385;44.538;18.532;2023-06-14T11:51:35;99064.78;;;24.91;48.65
80927;BME280;70385;44.538;18.532;2023-06-14T11:54:06;99052.91;;;24.19;47.06
80927;BME280;70385;44.538;18.532;2023-06-14T11:56:32;99058.06;;;23.70;50.08
80927;BME280;70385;44.538;18.532;2023-06-14T11:59:03;99045.75;;;24.28;48.23
80927;BME280;70385;44.538;18.532;2023-06-14T12:01:32;99053.38;;;24.06;48.19
80927;BME280;70385;44.538;18.532;2023-06-14T12:03:59;99046.50;;;24.87;48.00
80927;BME280;70385;44.538;18.532;2023-06-14T12:06:28;99049.94;;;25.85;46.77
80927;BME280;70385;44.538;18.532;2023-06-14T12:08:59;99051.44;;;25.79;45.75
80927;BME280;70385;44.538;18.532;2023-06-14T12:11:36;99057.41;;;24.69;50.04
80927;BME280;70385;44.538;18.532;2023-06-14T12:14:04;99052.69;;;24.55;47.99
80927;BME280;70385;44.538;18.532;2023-06-14T12:16:39;99050.69;;;23.98;49.94
80927;BME280;70385;44.538;18.532;2023-06-14T12:19:12;99053.91;;;25.17;46.29
80927;BME280;70385;44.538;18.532;2023-06-14T12:21:39;99049.53;;;24.75;47.82
80927;BME280;70385;44.538;18.532;2023-06-14T12:24:13;99040.00;;;23.98;49.91
80927;BME280;70385;44.538;18.532;2023-06-14T12:26:40;99042.09;;;24.29;50.75
80927;BME280;70385;44.538;18.532;2023-06-14T12:29:06;99039.63;;;25.41;47.13
80927;BME280;70385;44.538;18.532;2023-06-14T12:31:33;99036.50;;;25.13;47.23
80927;BME280;70385;44.538;18.532;2023-06-14T12:34:01;99037.81;;;24.52;48.87
80927;BME280;70385;44.538;18.532;2023-06-14T12:36:29;99039.00;;;24.98;48.52
80927;BME280;70385;44.538;18.532;2023-06-14T12:38:55;99038.28;;;25.53;49.19
80927;BME280;70385;44.538;18.532;2023-06-14T12:41:21;99039.84;;;24.82;48.02
80927;BME280;70385;44.538;18.532;2023-06-14T12:43:49;99039.84;;;25.31;47.88
80927;BME280;70385;44.538;18.532;2023-06-14T12:46:17;99027.44;;;25.94;46.35
80927;BME280;70385;44.538;18.532;2023-06-14T12:48:43;99036.50;;;24.80;49.49
80927;BME280;70385;44.538;18.532;2023-06-14T12:51:08;99032.78;;;25.38;47.22
80927;BME280;70385;44.538;18.532;2023-06-14T12:53:34;99039.72;;;25.80;47.31
80927;BME280;70385;44.538;18.532;2023-06-14T12:56:00;99022.53;;;26.37;45.20
80927;BME280;70385;44.538;18.532;2023-06-14T12:58:26;99017.50;;;26.42;45.81
80927;BME280;70385;44.538;18.532;2023-06-14T13:00:52;99030.50;;;26.14;47.06
80927;BME280;70385;44.538;18.532;2023-06-14T13:03:18;99024.44;;;26.20;45.33
80927;BME280;70385;44.538;18.532;2023-06-14T13:05:45;99026.06;;;25.42;49.04
80927;BME280;70385;44.538;18.532;2023-06-14T13:08:12;99013.31;;;26.00;46.82
80927;BME280;70385;44.538;18.532;2023-06-14T13:10:45;99018.13;;;26.13;46.09